createdAt,value
2018-06-14T00:01:53.384Z,99.90
2018-06-14T00:04:21.934Z,99.90
2018-06-14T00:06:50.451Z,99.90
2018-06-14T00:09:18.896Z,99.90
2018-06-14T00:11:47.328Z,99.90
2018-06-14T00:14:15.897Z,99.90
2018-06-14T00:16:44.328Z,99.90
2018-06-14T00:19:12.807Z,99.90
2018-06-14T00:21:41.253Z,99.90
2018-06-14T00:24:09.685Z,99.90
2018-06-14T00:26:38.617Z,99.90
2018-06-14T00:29:07.112Z,99.90
2018-06-14T00:31:35.575Z,99.90
2018-06-14T00:34:04.012Z,99.90
2018-06-14T00:36:32.479Z,99.90
2018-06-14T00:39:00.914Z,99.90
2018-06-14T00:41:29.357Z,99.90
2018-06-14T00:43:57.988Z,99.90
2018-06-14T00:46:26.468Z,99.90
2018-06-14T00:48:54.923Z,99.90
2018-06-14T00:51:23.413Z,99.90
2018-06-14T00:53:52.112Z,99.90
2018-06-14T00:56:20.564Z,99.90
2018-06-14T00:58:49.047Z,99.90
2018-06-14T01:01:17.530Z,99.90
2018-06-14T01:03:45.958Z,99.90
2018-06-14T01:06:14.441Z,99.90
2018-06-14T01:08:42.883Z,99.90
2018-06-14T01:11:11.343Z,99.90
2018-06-14T01:13:39.825Z,99.90
2018-06-14T01:16:08.364Z,99.90
2018-06-14T01:18:36.796Z,99.90
2018-06-14T01:21:05.263Z,99.90
2018-06-14T01:23:33.722Z,99.90
2018-06-14T01:26:02.247Z,99.90
2018-06-14T01:28:30.731Z,99.90
2018-06-14T01:30:59.205Z,99.90
2018-06-14T01:33:27.651Z,99.90
2018-06-14T01:35:56.210Z,99.90
2018-06-14T01:38:26.527Z,99.90
2018-06-14T01:40:55.324Z,99.90
2018-06-14T01:43:24.125Z,99.90
2018-06-14T01:45:52.707Z,99.90
2018-06-14T01:48:21.173Z,99.90
2018-06-14T01:50:49.651Z,99.90
2018-06-14T01:53:18.103Z,99.90
2018-06-14T01:55:46.647Z,99.90
2018-06-14T01:58:15.155Z,99.90
2018-06-14T02:00:43.622Z,99.90
2018-06-14T02:03:12.208Z,99.90
2018-06-14T02:05:40.675Z,99.90
2018-06-14T02:08:09.154Z,99.90
2018-06-14T02:10:37.562Z,99.90
2018-06-14T02:13:06.044Z,99.90
2018-06-14T02:15:34.583Z,99.90
2018-06-14T02:18:03.039Z,99.90
2018-06-14T02:20:31.508Z,99.90
2018-06-14T02:25:28.204Z,99.90
2018-06-14T02:27:56.687Z,99.90
2018-06-14T02:30:25.121Z,99.90
2018-06-14T02:32:53.598Z,99.90
2018-06-14T02:35:22.090Z,99.90
2018-06-14T02:37:50.559Z,99.90
2018-06-14T02:40:19.001Z,99.90
2018-06-14T02:42:47.490Z,99.90
2018-06-14T02:45:16.040Z,99.90
2018-06-14T02:47:44.557Z,99.90
2018-06-14T02:50:13.051Z,99.90
2018-06-14T02:52:41.607Z,99.90
2018-06-14T02:55:10.102Z,99.90
2018-06-14T02:57:38.597Z,99.90
2018-06-14T03:00:07.713Z,99.90
2018-06-14T03:02:36.559Z,99.90
2018-06-14T03:05:05.133Z,99.90
2018-06-14T03:07:34.527Z,99.90
2018-06-14T03:10:03.935Z,99.90
2018-06-14T03:12:32.537Z,99.90
2018-06-14T03:15:01.112Z,99.90
2018-06-14T03:17:29.592Z,99.90
2018-06-14T03:19:58.060Z,99.90
2018-06-14T03:22:27.282Z,99.90
2018-06-14T03:24:55.728Z,99.90
2018-06-14T03:27:24.202Z,99.90
2018-06-14T03:29:52.671Z,99.90
2018-06-14T03:32:21.211Z,99.90
2018-06-14T03:34:49.693Z,99.90
2018-06-14T03:37:18.158Z,99.90
2018-06-14T03:39:46.601Z,99.90
2018-06-14T03:42:15.992Z,99.90
2018-06-14T03:44:44.510Z,99.90
2018-06-14T03:49:42.125Z,99.90
2018-06-14T03:52:11.810Z,99.90
2018-06-14T03:54:40.611Z,99.90
2018-06-14T03:57:09.499Z,99.90
2018-06-14T03:59:37.974Z,99.90
2018-06-14T04:02:06.879Z,99.90
2018-06-14T04:04:35.469Z,99.90
2018-06-14T04:07:03.938Z,99.90
2018-06-14T04:09:32.493Z,99.90
2018-06-14T04:12:01.064Z,99.90
2018-06-14T04:14:29.605Z,99.90
2018-06-14T04:16:58.059Z,99.90
2018-06-14T04:19:26.582Z,99.90
2018-06-14T04:21:55.069Z,99.90
2018-06-14T04:24:23.632Z,99.90
2018-06-14T04:26:52.115Z,99.90
2018-06-14T04:29:20.549Z,99.90
2018-06-14T04:31:49.054Z,99.90
2018-06-14T04:34:17.528Z,99.90
2018-06-14T04:36:45.984Z,99.90
2018-06-14T04:39:14.439Z,99.90
2018-06-14T04:41:43.083Z,99.90
2018-06-14T04:44:11.625Z,99.90
2018-06-14T04:46:40.080Z,99.90
2018-06-14T04:49:08.664Z,99.90
2018-06-14T04:51:42.144Z,99.90
2018-06-14T04:54:10.827Z,99.90
2018-06-14T04:56:39.329Z,99.90
2018-06-14T04:59:07.792Z,99.90
2018-06-14T05:01:36.392Z,99.90
2018-06-14T05:04:04.900Z,99.90
2018-06-14T05:06:33.513Z,99.90
2018-06-14T05:09:01.980Z,99.90
2018-06-14T05:11:30.445Z,99.90
2018-06-14T05:13:58.904Z,99.90
2018-06-14T05:16:27.553Z,99.90
2018-06-14T05:18:56.164Z,99.90
2018-06-14T05:21:24.657Z,99.90
2018-06-14T05:23:53.124Z,99.90
2018-06-14T05:26:21.572Z,99.90
2018-06-14T05:28:50.022Z,99.90
2018-06-14T05:31:18.511Z,99.90
2018-06-14T05:33:47.024Z,99.90
2018-06-14T05:36:15.857Z,99.90
2018-06-14T05:38:44.335Z,99.90
2018-06-14T05:41:13.118Z,99.90
2018-06-14T05:43:41.609Z,99.90
2018-06-14T05:46:10.153Z,99.90
2018-06-14T05:48:38.639Z,99.90
2018-06-14T05:51:07.260Z,99.90
2018-06-14T05:53:35.723Z,99.60
2018-06-14T05:56:04.233Z,93.70
2018-06-14T05:58:32.807Z,96.40
2018-06-14T06:01:01.290Z,92.40
2018-06-14T06:03:29.722Z,90.00
2018-06-14T06:05:58.164Z,90.20
2018-06-14T06:08:26.723Z,88.30
2018-06-14T06:10:55.178Z,88.90
2018-06-14T06:13:23.624Z,87.90
2018-06-14T06:15:52.080Z,87.60
2018-06-14T06:18:20.512Z,85.60
2018-06-14T06:20:49.021Z,81.20
2018-06-14T06:23:17.484Z,78.30
2018-06-14T06:25:45.952Z,76.90
2018-06-14T06:28:14.385Z,74.10
2018-06-14T06:30:43.115Z,72.90
2018-06-14T06:33:11.739Z,70.10
2018-06-14T06:35:40.248Z,67.40
2018-06-14T06:38:08.748Z,66.60
2018-06-14T06:40:37.196Z,63.90
2018-06-14T06:43:05.687Z,64.70
2018-06-14T06:45:34.152Z,61.90
2018-06-14T06:48:02.608Z,63.40
2018-06-14T06:50:31.058Z,66.60
2018-06-14T06:52:59.526Z,68.90
2018-06-14T06:55:27.974Z,69.00
2018-06-14T06:57:56.416Z,70.80
2018-06-14T07:00:24.896Z,70.30
2018-06-14T07:02:53.340Z,67.00
2018-06-14T07:05:21.791Z,65.00
2018-06-14T07:07:50.262Z,60.40
2018-06-14T07:10:18.761Z,58.40
2018-06-14T07:12:47.230Z,55.50
2018-06-14T07:15:15.698Z,53.40
2018-06-14T07:17:44.196Z,53.10
2018-06-14T07:20:12.696Z,54.00
2018-06-14T07:22:41.165Z,51.20
2018-06-14T07:25:09.608Z,51.40
2018-06-14T07:27:38.113Z,53.50
2018-06-14T07:30:06.737Z,53.10
2018-06-14T07:32:35.225Z,51.80
2018-06-14T07:35:03.814Z,51.90
2018-06-14T07:37:32.290Z,52.00
2018-06-14T07:40:00.731Z,49.80
2018-06-14T07:42:29.165Z,48.10
2018-06-14T07:44:57.635Z,50.10
2018-06-14T07:47:26.105Z,51.90
2018-06-14T07:49:54.544Z,49.70
2018-06-14T07:52:23.024Z,47.70
2018-06-14T07:54:51.482Z,48.60
2018-06-14T07:57:19.961Z,48.50
2018-06-14T07:59:48.436Z,49.00
2018-06-14T08:02:16.874Z,45.80
2018-06-14T08:04:45.343Z,48.10
2018-06-14T08:07:13.938Z,48.00
2018-06-14T08:09:42.443Z,44.90
2018-06-14T08:12:10.917Z,47.30
2018-06-14T08:14:39.400Z,47.10
2018-06-14T08:17:07.520Z,47.10
2018-06-14T08:19:35.989Z,46.40
2018-06-14T08:22:04.516Z,46.70
2018-06-14T08:27:01.105Z,48.50
2018-06-14T08:29:29.581Z,46.30
2018-06-14T08:31:58.028Z,44.10
2018-06-14T08:34:26.476Z,45.80
2018-06-14T08:36:55.016Z,43.60
2018-06-14T08:39:23.472Z,42.80
2018-06-14T08:41:51.918Z,43.60
2018-06-14T08:44:20.385Z,44.50
2018-06-14T08:46:49.038Z,43.60
2018-06-14T08:49:17.494Z,41.70
2018-06-14T08:51:46.033Z,39.60
2018-06-14T08:54:14.484Z,37.90
2018-06-14T08:59:11.266Z,36.70
2018-06-14T09:01:39.710Z,36.10
2018-06-14T09:04:08.162Z,36.80
2018-06-14T09:06:36.642Z,37.50
2018-06-14T09:09:07.649Z,36.30
2018-06-14T09:11:36.102Z,33.00
2018-06-14T09:14:04.588Z,37.10
2018-06-14T09:16:33.036Z,34.60
2018-06-14T09:19:01.485Z,37.20
2018-06-14T09:21:30.049Z,37.00
2018-06-14T09:23:58.559Z,39.80
2018-06-14T09:26:26.999Z,40.30
2018-06-14T09:28:55.462Z,39.20
2018-06-14T09:31:23.981Z,34.70
2018-06-14T09:33:52.557Z,32.90
2018-06-14T09:36:21.017Z,33.10
2018-06-14T09:38:49.530Z,33.30
2018-06-14T09:41:17.983Z,36.40
2018-06-14T09:43:46.442Z,35.90
2018-06-14T09:46:14.880Z,36.90
2018-06-14T09:48:43.334Z,38.40
2018-06-14T09:51:11.828Z,38.80
2018-06-14T09:53:40.313Z,37.30
2018-06-14T09:56:08.752Z,38.10
2018-06-14T09:58:37.239Z,39.30
2018-06-14T10:01:05.685Z,38.10
2018-06-14T10:03:34.145Z,40.30
2018-06-14T10:06:02.715Z,38.90
2018-06-14T10:08:31.150Z,40.50
2018-06-14T10:10:59.695Z,37.90
2018-06-14T10:13:28.165Z,36.90
2018-06-14T10:15:57.157Z,37.90
2018-06-14T10:18:25.956Z,37.90
2018-06-14T10:20:54.429Z,37.20
2018-06-14T10:23:22.861Z,37.40
2018-06-14T10:25:51.326Z,39.00
2018-06-14T10:28:19.800Z,38.10
2018-06-14T10:30:48.255Z,39.60
2018-06-14T10:33:16.714Z,40.70
2018-06-14T10:35:45.177Z,41.70
2018-06-14T10:38:13.623Z,43.30
2018-06-14T10:40:42.089Z,39.20
2018-06-14T10:43:10.610Z,40.60
2018-06-14T10:45:39.084Z,40.70
2018-06-14T10:48:07.911Z,39.80
2018-06-14T10:50:36.393Z,40.50
2018-06-14T10:53:04.928Z,36.00
2018-06-14T10:55:33.356Z,36.50
2018-06-14T10:58:01.819Z,35.60
2018-06-14T11:00:30.323Z,33.90
2018-06-14T11:02:58.831Z,33.70
2018-06-14T11:05:27.453Z,36.50
2018-06-14T11:07:56.594Z,35.30
2018-06-14T11:10:25.059Z,36.40
2018-06-14T11:12:53.517Z,33.60
2018-06-14T11:15:21.996Z,35.30
2018-06-14T11:17:50.460Z,33.70
2018-06-14T11:20:19.005Z,30.40
2018-06-14T11:22:47.448Z,34.20
2018-06-14T11:25:16.012Z,30.90
2018-06-14T11:27:44.541Z,31.20
2018-06-14T11:30:12.980Z,32.50
2018-06-14T11:32:41.431Z,33.50
2018-06-14T11:35:09.875Z,30.70
2018-06-14T11:37:38.332Z,30.90
2018-06-14T11:40:06.903Z,30.30
2018-06-14T11:42:35.401Z,29.50
2018-06-14T11:45:04.140Z,31.80
2018-06-14T11:47:32.599Z,32.20
2018-06-14T11:50:01.216Z,32.80
2018-06-14T11:52:29.647Z,31.70
2018-06-14T11:54:58.120Z,35.40
2018-06-14T11:57:26.602Z,36.40
2018-06-14T11:59:55.156Z,38.20
2018-06-14T12:02:23.835Z,37.80
2018-06-14T12:04:52.967Z,39.30
2018-06-14T12:07:21.410Z,38.20
2018-06-14T12:09:49.862Z,38.60
2018-06-14T12:12:18.326Z,37.20
2018-06-14T12:14:47.220Z,39.00
2018-06-14T12:17:15.652Z,40.70
2018-06-14T12:19:44.110Z,38.30
2018-06-14T12:22:12.592Z,41.90
2018-06-14T12:24:41.031Z,44.10
2018-06-14T12:27:09.509Z,45.70
2018-06-14T12:29:38.061Z,48.50
2018-06-14T12:32:06.545Z,52.30
2018-06-14T12:34:35.581Z,55.00
2018-06-14T12:37:04.049Z,54.80
2018-06-14T12:39:32.547Z,57.90
2018-06-14T12:42:01.121Z,59.10
2018-06-14T12:44:29.678Z,60.30
2018-06-14T12:46:58.123Z,59.50
2018-06-14T12:49:26.595Z,58.00
2018-06-14T12:51:55.072Z,56.20
2018-06-14T12:54:24.044Z,58.30
2018-06-14T12:56:52.496Z,60.80
2018-06-14T12:59:20.931Z,62.70
2018-06-14T13:01:49.381Z,63.10
2018-06-14T13:04:17.861Z,66.20
2018-06-14T13:06:46.358Z,65.90
2018-06-14T13:09:14.896Z,70.40
2018-06-14T13:11:43.357Z,68.80
2018-06-14T13:14:12.864Z,64.70
2018-06-14T13:16:42.313Z,65.40
2018-06-14T13:19:10.882Z,59.50
2018-06-14T13:21:39.463Z,62.80
2018-06-14T13:24:07.923Z,63.20
2018-06-14T13:26:36.381Z,64.30
2018-06-14T13:29:04.910Z,59.30
2018-06-14T13:31:33.351Z,61.50
2018-06-14T13:34:01.888Z,63.70
2018-06-14T13:36:30.339Z,68.00
2018-06-14T13:38:58.783Z,67.90
2018-06-14T13:41:27.360Z,67.80
2018-06-14T13:43:55.822Z,68.80
2018-06-14T13:46:24.318Z,69.80
2018-06-14T13:48:52.870Z,70.40
2018-06-14T13:51:21.336Z,74.60
2018-06-14T13:53:49.788Z,74.80
2018-06-14T13:56:18.264Z,77.30
2018-06-14T13:58:46.735Z,78.60
2018-06-14T14:01:15.312Z,85.60
2018-06-14T14:03:43.719Z,84.90
2018-06-14T14:06:12.188Z,81.50
2018-06-14T14:08:40.776Z,86.90
2018-06-14T14:11:09.231Z,88.60
2018-06-14T14:13:37.685Z,86.40
2018-06-14T14:16:06.191Z,91.60
2018-06-14T14:18:34.879Z,89.40
2018-06-14T14:21:03.351Z,91.30
2018-06-14T14:23:31.820Z,91.70
2018-06-14T14:26:00.334Z,91.40
2018-06-14T14:28:28.785Z,94.50
2018-06-14T14:30:57.246Z,95.70
2018-06-14T14:33:25.718Z,98.80
2018-06-14T14:35:54.216Z,98.00
2018-06-14T14:38:22.920Z,99.90
2018-06-14T14:40:51.481Z,99.90
2018-06-14T14:43:20.009Z,99.90
2018-06-14T14:45:49.453Z,99.90
2018-06-14T14:48:17.933Z,99.90
2018-06-14T14:50:46.408Z,98.50
2018-06-14T14:53:14.967Z,99.90
2018-06-14T14:55:43.361Z,99.90
2018-06-14T14:58:11.828Z,99.90
2018-06-14T15:00:40.301Z,99.90
2018-06-14T15:03:08.795Z,99.90
2018-06-14T15:05:37.249Z,99.90
2018-06-14T15:08:05.733Z,96.90
2018-06-14T15:10:34.225Z,96.00
2018-06-14T15:13:02.709Z,97.80
2018-06-14T15:15:31.200Z,98.30
2018-06-14T15:17:59.673Z,92.40
2018-06-14T15:20:28.094Z,92.40
2018-06-14T15:22:56.576Z,90.90
2018-06-14T15:25:25.071Z,90.50
2018-06-14T15:27:53.520Z,90.60
2018-06-14T15:30:21.971Z,88.70
2018-06-14T15:32:50.440Z,81.90
2018-06-14T15:35:18.875Z,80.50
2018-06-14T15:37:47.332Z,77.00
2018-06-14T15:40:15.804Z,75.10
2018-06-14T15:42:44.285Z,74.60
2018-06-14T15:45:12.727Z,74.70
2018-06-14T15:47:41.338Z,73.30
2018-06-14T15:50:09.909Z,76.90
2018-06-14T15:52:38.393Z,77.40
2018-06-14T15:57:40.663Z,82.80
2018-06-14T16:00:09.145Z,80.50
2018-06-14T16:02:37.611Z,80.80
2018-06-14T16:05:06.091Z,82.00
2018-06-14T16:07:34.614Z,83.10
2018-06-14T16:10:03.205Z,83.50
2018-06-14T16:12:31.709Z,82.80
2018-06-14T16:15:00.289Z,82.30
2018-06-14T16:17:28.767Z,82.00
2018-06-14T16:19:57.236Z,82.10
2018-06-14T16:22:25.709Z,84.50
2018-06-14T16:24:54.160Z,83.20
2018-06-14T16:27:22.615Z,82.90
2018-06-14T16:29:51.151Z,84.70
2018-06-14T16:32:19.877Z,83.90
2018-06-14T16:34:48.404Z,81.70
2018-06-14T16:37:16.859Z,81.10
2018-06-14T16:39:45.327Z,76.00
2018-06-14T16:42:13.772Z,76.70
2018-06-14T16:44:42.222Z,76.00
2018-06-14T16:47:10.682Z,78.00
2018-06-14T16:49:39.163Z,76.70
2018-06-14T16:52:07.607Z,78.50
2018-06-14T16:54:36.084Z,79.40
2018-06-14T16:57:04.559Z,81.30
2018-06-14T16:59:33.089Z,83.00
2018-06-14T17:02:01.652Z,80.10
2018-06-14T17:04:30.132Z,83.00
2018-06-14T17:06:58.597Z,83.00
2018-06-14T17:09:27.097Z,82.50
2018-06-14T17:11:55.526Z,81.70
2018-06-14T17:14:23.956Z,83.10
2018-06-14T17:16:52.533Z,81.90
2018-06-14T17:19:20.984Z,84.40
2018-06-14T17:24:18.273Z,83.80
2018-06-14T17:26:46.744Z,87.90
2018-06-14T17:29:15.217Z,90.00
2018-06-14T17:31:43.951Z,95.00
2018-06-14T17:34:12.533Z,99.70
2018-06-14T17:36:41.012Z,99.90
2018-06-14T17:39:09.604Z,99.90
2018-06-14T17:41:38.807Z,99.90
2018-06-14T17:44:07.578Z,99.90
2018-06-14T17:49:05.337Z,99.90
2018-06-14T17:51:33.866Z,99.90
2018-06-14T17:54:02.344Z,99.90
2018-06-14T17:56:30.914Z,99.90
2018-06-14T17:58:59.737Z,99.90
2018-06-14T18:01:28.270Z,99.90
2018-06-14T18:03:56.772Z,99.50
2018-06-14T18:06:25.274Z,99.50
2018-06-14T18:08:53.739Z,97.20
2018-06-14T18:11:22.409Z,95.00
2018-06-14T18:13:50.861Z,93.10
2018-06-14T18:16:19.356Z,94.20
2018-06-14T18:18:48.057Z,93.60
2018-06-14T18:21:16.654Z,92.60
2018-06-14T18:23:45.190Z,93.80
2018-06-14T18:28:41.811Z,92.20
2018-06-14T18:31:10.288Z,92.10
2018-06-14T18:33:38.781Z,94.80
2018-06-14T18:36:07.374Z,95.90
2018-06-14T18:38:35.848Z,95.70
2018-06-14T18:41:04.578Z,96.50
2018-06-14T18:43:33.327Z,96.50
2018-06-14T18:46:01.891Z,96.30
2018-06-14T18:48:30.551Z,95.50
2018-06-14T18:50:58.985Z,95.30
2018-06-14T18:53:27.490Z,94.40
2018-06-14T18:55:55.977Z,95.20
2018-06-14T18:58:24.449Z,95.80
2018-06-14T19:03:21.193Z,94.30
2018-06-14T19:05:49.668Z,95.70
2018-06-14T19:08:18.651Z,95.20
2018-06-14T19:10:47.096Z,94.40
2018-06-14T19:13:15.675Z,95.90
2018-06-14T19:18:12.343Z,95.30
2018-06-14T19:20:40.898Z,97.00
2018-06-14T19:23:09.424Z,96.80
2018-06-14T19:25:38.010Z,97.00
2018-06-14T19:28:06.546Z,97.80
2018-06-14T19:30:35.080Z,97.30
2018-06-14T19:33:03.538Z,97.60
2018-06-14T19:35:31.987Z,97.90
2018-06-14T19:38:00.568Z,97.10
2018-06-14T19:42:57.343Z,98.70
2018-06-14T19:45:25.821Z,99.90
2018-06-14T19:47:54.297Z,99.90
2018-06-14T19:50:22.784Z,99.90
2018-06-14T19:52:51.308Z,99.90
2018-06-14T19:55:19.821Z,99.90
2018-06-14T19:57:48.299Z,99.90
2018-06-14T20:00:16.855Z,99.90
2018-06-14T20:02:45.330Z,99.90
2018-06-14T20:05:13.798Z,99.90
2018-06-14T20:07:42.315Z,99.90
2018-06-14T20:10:11.083Z,99.90
2018-06-14T20:12:39.553Z,99.90
2018-06-14T20:15:08.072Z,99.90
2018-06-14T20:17:36.761Z,99.90
2018-06-14T20:20:07.298Z,99.90
2018-06-14T20:22:35.855Z,99.90
2018-06-14T20:25:04.448Z,99.90
2018-06-14T20:27:33.560Z,99.90
2018-06-14T20:30:02.494Z,99.90
2018-06-14T20:32:31.120Z,99.90
2018-06-14T20:34:59.600Z,99.90
2018-06-14T20:37:28.135Z,99.90
2018-06-14T20:39:56.594Z,99.90
2018-06-14T20:42:25.070Z,99.90
2018-06-14T20:44:53.561Z,99.90
2018-06-14T20:47:22.017Z,99.90
2018-06-14T20:49:50.519Z,99.90
2018-06-14T20:52:19.244Z,99.90
2018-06-14T20:54:47.717Z,99.90
2018-06-14T20:57:16.327Z,99.90
2018-06-14T20:59:44.930Z,99.90
2018-06-14T21:02:13.390Z,99.90
2018-06-14T21:04:41.993Z,99.90
2018-06-14T21:07:11.304Z,99.90
2018-06-14T21:09:39.759Z,99.90
2018-06-14T21:12:08.208Z,99.90
2018-06-14T21:14:36.672Z,99.90
2018-06-14T21:17:05.144Z,99.90
2018-06-14T21:19:33.610Z,99.90
2018-06-14T21:22:02.091Z,99.90
2018-06-14T21:24:30.580Z,99.90
2018-06-14T21:26:59.021Z,99.90
2018-06-14T21:29:27.542Z,99.90
2018-06-14T21:31:56.013Z,99.90
2018-06-14T21:34:24.468Z,99.90
2018-06-14T21:36:52.948Z,99.90
2018-06-14T21:39:21.398Z,99.90
2018-06-14T21:41:49.858Z,99.90
2018-06-14T21:44:18.436Z,99.90
2018-06-14T21:46:47.033Z,99.90
2018-06-14T21:49:15.535Z,99.90
2018-06-14T21:51:44.056Z,99.90
2018-06-14T21:54:12.649Z,99.90
2018-06-14T21:56:41.140Z,99.90
2018-06-14T21:59:09.645Z,99.90
2018-06-14T22:01:38.117Z,99.90
2018-06-14T22:04:06.684Z,99.90
2018-06-14T22:06:35.163Z,99.90
2018-06-14T22:09:04.668Z,99.90
2018-06-14T22:11:34.093Z,99.90
2018-06-14T22:14:02.589Z,99.90
2018-06-14T22:16:31.108Z,99.90
2018-06-14T22:18:59.691Z,99.90
2018-06-14T22:21:28.164Z,99.90
2018-06-14T22:23:56.654Z,99.90
2018-06-14T22:26:25.113Z,99.90
2018-06-14T22:28:53.596Z,99.90
2018-06-14T22:31:22.049Z,99.90
2018-06-14T22:34:01.947Z,99.90
2018-06-14T22:36:30.474Z,99.90
2018-06-14T22:38:58.940Z,99.90
2018-06-14T22:41:27.454Z,99.90
2018-06-14T22:43:55.944Z,99.90
2018-06-14T22:46:24.408Z,99.90
2018-06-14T22:48:52.908Z,99.90
2018-06-14T22:51:22.170Z,99.90
2018-06-14T22:53:50.628Z,99.90
2018-06-14T22:56:19.110Z,99.90
2018-06-14T22:58:47.843Z,99.90
2018-06-14T23:01:25.479Z,99.90
2018-06-14T23:03:53.903Z,99.90
2018-06-14T23:06:22.386Z,99.90
2018-06-14T23:08:50.858Z,99.90
2018-06-14T23:13:48.484Z,99.90
2018-06-14T23:16:17.118Z,99.90
2018-06-14T23:18:45.555Z,99.90
2018-06-14T23:21:13.975Z,99.90
2018-06-14T23:23:42.427Z,99.90
2018-06-14T23:26:10.953Z,99.90
2018-06-14T23:28:39.545Z,99.90
2018-06-14T23:31:08.093Z,99.90
2018-06-14T23:36:04.745Z,99.90
2018-06-14T23:38:33.296Z,99.90
2018-06-14T23:41:01.743Z,99.90
2018-06-14T23:43:30.159Z,99.90
2018-06-14T23:45:58.584Z,99.90
2018-06-14T23:48:27.014Z,99.90
2018-06-14T23:50:55.434Z,99.90
2018-06-14T23:53:23.887Z,99.90
2018-06-14T23:55:52.318Z,99.90
2018-06-14T23:58:20.762Z,99.90
